Terminal Aerodrome Forecast
Issued by NWS

Home | Current Version | Previous Version | Text Only | Print | Product List | Glossary On
Versions: 1 2 3 4 5 6 7 8 9 10 11 12 13 14
000
FTUS42 TJSJ 201741
TAFJSJ
TAF
TJSJ 201741Z 2018/2118 12030G50KT 1SM SHRA SCT015 OVC025
     FM201900 17020G40KT 3SM SHRA SCT015 BKN025
     FM210400 17014G20KT 4SM SHRA BKN025 BKN060=

USA.gov is the U.S. government's official web portal to all federal, state and local government web resources and services.